Time;durP1;ratioP1;P1;durP2;ratioP2;P2;SDS_P1;SDS_P2;PMS_P1;PMS_P2;Temp;Humidity;BMP_temperature;BMP_pressure;BME280_temperature;BME280_humidity;BME280_pressure;Samples;Min_cycle;Max_cycle;Signal;HPM_P1;HPM_P2
2024/03/09 00:00:29;;;;;;;8.43;3.97;;;;;;;9.31;100.00;98242.47;5033344;28;20092;-96
2024/03/09 00:02:58;;;;;;;5.15;3.28;;;;;;;9.35;100.00;98231.72;5037786;28;20072;-95
2024/03/09 00:05:25;;;;;;;6.97;3.47;;;;;;;9.79;100.00;98308.22;5035455;28;20131;-94
2024/03/09 00:07:54;;;;;;;7.43;3.72;;;;;;;9.27;100.00;98220.47;5055719;28;20099;-96
2024/03/09 00:10:21;;;;;;;7.00;3.97;;;;;;;9.01;100.00;98169.06;5034925;28;20056;-95
2024/03/09 00:12:48;;;;;;;5.93;3.35;;;;;;;9.03;100.00;98179.66;5038851;28;20102;-96
2024/03/09 00:15:15;;;;;;;6.35;3.45;;;;;;;9.48;100.00;98258.75;5036202;28;20102;-95
2024/03/09 00:17:43;;;;;;;7.03;4.38;;;;;;;8.82;100.00;98131.63;5028543;28;20042;-95
2024/03/09 00:20:15;;;;;;;7.25;4.50;;;;;;;9.79;100.00;98287.00;5027747;28;20034;-96
2024/03/09 00:22:43;;;;;;;10.20;5.97;;;;;;;9.82;100.00;98297.50;5034271;28;20052;-95
2024/03/09 00:25:10;;;;;;;10.10;5.70;;;;;;;9.74;100.00;98288.94;5031552;28;20482;-96
2024/03/09 00:27:38;;;;;;;9.52;5.00;;;;;;;9.65;100.00;98295.41;5029703;28;20045;-94
2024/03/09 00:30:10;;;;;;;8.45;4.97;;;;;;;9.68;100.00;98299.75;5025833;28;20045;-95
2024/03/09 00:32:36;;;;;;;11.20;5.50;;;;;;;8.66;100.00;98143.63;5029159;28;20041;-94
2024/03/09 00:35:04;;;;;;;9.45;5.80;;;;;;;8.91;100.00;98214.47;5027994;28;20041;-96
2024/03/09 00:37:32;;;;;;;9.82;6.80;;;;;;;9.31;100.00;98285.78;5030242;28;20061;-95
2024/03/09 00:39:58;;;;;;;10.40;5.78;;;;;;;9.42;100.00;98294.28;5025854;28;20124;-95
2024/03/09 00:42:25;;;;;;;11.40;6.28;;;;;;;8.58;100.00;98132.38;5030070;28;20037;-96
2024/03/09 00:44:51;;;;;;;11.77;6.60;;;;;;;9.13;100.00;98222.66;5029382;28;20045;-95
2024/03/09 00:47:17;;;;;;;10.40;6.47;;;;;;;9.42;100.00;98275.72;5034886;28;20451;-96
2024/03/09 00:49:47;;;;;;;14.38;7.32;;;;;;;8.61;100.00;98143.75;5037126;28;20041;-96
2024/03/09 00:52:19;;;;;;;13.75;7.93;;;;;;;8.61;100.00;98145.56;5042388;28;20049;-96
2024/03/09 00:54:45;;;;;;;9.13;6.15;;;;;;;9.50;100.00;98278.16;5048457;28;20079;-96
2024/03/09 00:57:13;;;;;;;13.25;7.47;;;;;;;9.52;100.00;98271.00;5033042;28;20060;-96
2024/03/09 00:59:41;;;;;;;12.52;7.15;;;;;;;9.56;100.00;98290.34;5030276;28;20042;-96
2024/03/09 01:02:08;;;;;;;14.50;6.13;;;;;;;9.03;100.00;98179.66;5028074;28;20045;-96
2024/03/09 01:04:34;;;;;;;11.07;6.05;;;;;;;9.53;100.00;98285.16;5029422;28;20049;-95
2024/03/09 01:07:00;;;;;;;8.93;5.53;;;;;;;9.52;100.00;98271.00;5035080;28;20041;-95
2024/03/09 01:09:28;;;;;;;9.40;5.50;;;;;;;9.57;100.00;98261.13;5035590;28;20044;-96
2024/03/09 01:11:54;;;;;;;11.68;5.43;;;;;;;9.43;100.00;98268.63;5047823;28;20056;-95
2024/03/09 01:14:20;;;;;;;9.65;4.95;;;;;;;8.78;100.00;98121.16;5040239;28;20055;-95
2024/03/09 01:16:46;;;;;;;10.00;6.28;;;;;;;9.64;100.00;98254.69;5037737;28;20055;-95
2024/03/09 01:19:12;;;;;;;8.43;5.38;;;;;;;9.57;100.00;98247.84;5046724;28;20053;-95
2024/03/09 01:21:40;;;;;;;10.20;4.68;;;;;;;9.59;100.00;98248.66;5047346;28;20066;-95
2024/03/09 01:24:06;;;;;;;11.27;5.32;;;;;;;8.63;100.00;98067.72;5051211;28;20049;-93
2024/03/09 01:26:34;;;;;;;13.45;6.22;;;;;;;9.08;100.00;98145.03;5038756;28;20045;-93
2024/03/09 01:29:00;;;;;;;11.02;5.82;;;;;;;9.36;100.00;98187.47;5044777;28;20064;-93
2024/03/09 01:31:28;;;;;;;10.13;4.72;;;;;;;8.61;100.00;98093.41;5047510;28;20037;-94
2024/03/09 01:33:55;;;;;;;7.00;4.57;;;;;;;9.53;100.00;98227.63;5045830;28;20050;-96
2024/03/09 01:36:21;;;;;;;9.38;5.50;;;;;;;9.60;100.00;98225.63;5026213;28;20053;-96
2024/03/09 01:38:48;;;;;;;11.32;4.82;;;;;;;8.55;100.00;98068.88;5037827;28;20060;-96
2024/03/09 01:41:14;;;;;;;8.05;4.65;;;;;;;8.68;100.00;98077.31;5030555;28;20056;-95
2024/03/09 01:43:42;;;;;;;8.32;4.35;;;;;;;9.40;100.00;98189.97;5020006;28;20052;-96
2024/03/09 01:46:11;;;;;;;5.82;4.22;;;;;;;9.55;100.00;98215.16;5020288;28;20045;-95
2024/03/09 01:48:39;;;;;;;6.57;4.10;;;;;;;8.84;100.00;98087.38;5027002;28;20488;-94
2024/03/09 01:51:08;;;;;;;5.88;3.05;;;;;;;9.59;100.00;98216.81;5028224;28;20045;-94
2024/03/09 01:53:41;;;;;;;5.97;4.07;;;;;;;8.97;100.00;98097.63;5027489;28;20045;-95
2024/03/09 01:56:11;;;;;;;10.23;3.70;;;;;;;8.60;100.00;98082.84;5044490;28;20033;-94
2024/03/09 01:58:41;;;;;;;6.50;3.42;;;;;;;9.50;100.00;98202.94;5046521;28;20029;-93
2024/03/09 02:01:22;;;;;;;5.45;3.60;;;;;;;9.55;100.00;98199.25;5045660;28;20025;-95
2024/03/09 02:03:53;;;;;;;6.07;3.47;;;;;;;8.78;100.00;98078.75;5052547;28;20043;-95
2024/03/09 02:06:27;;;;;;;7.25;3.88;;;;;;;9.30;100.00;98145.22;5044523;28;20042;-96
2024/03/09 02:08:57;;;;;;;5.03;3.22;;;;;;;9.52;100.00;98199.34;5026126;28;20098;-96
2024/03/09 02:11:23;;;;;;;7.18;3.75;;;;;;;8.81;100.00;98066.28;5030159;28;20034;-95
2024/03/09 02:13:51;;;;;;;9.60;4.07;;;;;;;9.53;100.00;98190.47;5031637;28;20037;-95
2024/03/09 02:16:19;;;;;;;7.35;3.67;;;;;;;9.02;100.00;98093.91;5029344;28;20045;-94
2024/03/09 02:18:48;;;;;;;7.75;3.22;;;;;;;9.36;100.00;98155.63;5029160;28;20044;-94
2024/03/09 02:21:14;;;;;;;8.45;4.15;;;;;;;9.49;100.00;98186.16;5024981;28;20087;-94
2024/03/09 02:23:42;;;;;;;10.05;4.43;;;;;;;9.54;100.00;98194.88;5040719;28;20049;-94
2024/03/09 02:26:10;;;;;;;7.30;3.75;;;;;;;9.53;100.00;98186.94;5038255;28;20048;-96
2024/03/09 02:28:36;;;;;;;8.38;4.18;;;;;;;9.19;100.00;98121.66;5031463;28;20396;-94
2024/03/09 02:31:05;;;;;;;9.65;4.22;;;;;;;9.48;100.00;98167.63;5029710;28;20041;-94
2024/03/09 02:33:32;;;;;;;;;;;;;;;9.58;100.00;98185.84;5050196;28;20049;-94
2024/03/09 02:36:00;;;;;;;7.10;4.20;;;;;;;9.55;100.00;98183.31;5031714;28;19929;-96
2024/03/09 02:38:26;;;;;;;8.32;4.63;;;;;;;9.59;100.00;98168.16;5029924;28;20136;-95
2024/03/09 02:40:52;;;;;;;6.53;4.10;;;;;;;9.61;100.00;98177.81;5030993;28;20045;-95
2024/03/09 02:43:23;;;;;;;8.48;4.78;;;;;;;9.43;100.00;98138.59;5031445;28;20030;-94
2024/03/09 02:45:49;;;;;;;12.52;5.75;;;;;;;9.22;100.00;98156.94;5028125;28;20046;-94
2024/03/09 02:48:15;;;;;;;12.75;5.00;;;;;;;8.33;100.00;97997.09;5029357;28;20801;-94
2024/03/09 02:50:42;;;;;;;9.65;4.93;;;;;;;8.52;100.00;98015.94;5029555;28;20072;-94
2024/03/09 02:53:08;;;;;;;7.60;4.85;;;;;;;8.60;100.00;98014.78;5048024;28;20091;-96
2024/03/09 02:55:35;;;;;;;9.02;5.30;;;;;;;9.31;100.00;98146.97;5032219;28;20071;-96
2024/03/09 02:58:01;;;;;;;8.88;5.35;;;;;;;8.32;100.00;97979.44;5028708;28;20041;-95
2024/03/09 03:00:28;;;;;;;7.97;4.72;;;;;;;9.35;100.00;98141.50;5037395;28;20049;-95
2024/03/09 03:06:00;;;;;;;7.00;4.30;;;;;;;9.12;100.00;98065.31;5113313;27;20420;-94
2024/03/09 03:08:26;;;;;;;9.95;4.05;;;;;;;9.22;100.00;98093.28;5110505;28;20474;-96
2024/03/09 03:10:52;;;;;;;10.93;4.88;;;;;;;9.03;100.00;98061.16;5110467;28;20051;-96
2024/03/09 03:13:19;;;;;;;8.95;4.22;;;;;;;9.27;100.00;98094.91;5109058;28;20051;-93
2024/03/09 03:15:45;;;;;;;11.18;3.75;;;;;;;9.53;100.00;98133.84;5113419;28;20036;-94
2024/03/09 03:18:11;;;;;;;7.13;4.28;;;;;;;8.67;100.00;98009.31;5109181;28;20043;-93
2024/03/09 03:20:37;;;;;;;7.35;4.30;;;;;;;9.48;100.00;98146.38;5110057;28;20044;-93
2024/03/09 03:23:06;;;;;;;8.00;4.75;;;;;;;9.31;100.00;98092.09;5109898;28;20040;-93
2024/03/09 03:25:32;;;;;;;11.60;3.88;;;;;;;9.49;100.00;98125.13;5111001;28;20040;-94
2024/03/09 03:27:58;;;;;;;9.48;4.60;;;;;;;9.56;100.00;98147.00;5108274;28;20050;-94
2024/03/09 03:30:25;;;;;;;6.93;3.67;;;;;;;8.83;100.00;98015.88;5108606;28;20459;-94
2024/03/09 03:32:52;;;;;;;7.85;4.07;;;;;;;9.70;100.00;98152.75;5110169;28;20140;-93
2024/03/09 03:35:18;;;;;;;7.20;4.45;;;;;;;8.79;100.00;97999.19;5109793;28;20048;-94
2024/03/09 03:37:46;;;;;;;5.80;3.83;;;;;;;9.38;100.00;98084.81;5108584;28;20097;-95
2024/03/09 03:40:15;;;;;;;7.95;4.18;;;;;;;9.63;100.00;98152.09;5109995;28;20036;-94
2024/03/09 03:42:41;;;;;;;9.70;3.83;;;;;;;8.60;100.00;98004.19;5112506;28;20112;-96
2024/03/09 03:45:11;;;;;;;7.13;4.50;;;;;;;9.24;100.00;98110.00;5107864;28;20036;-95
2024/03/09 03:47:37;;;;;;;8.48;4.97;;;;;;;9.32;100.00;98156.63;5107948;28;20430;-95
2024/03/09 03:50:04;;;;;;;7.22;4.15;;;;;;;9.36;100.00;98155.63;5110439;28;20043;-94
2024/03/09 03:52:30;;;;;;;8.40;5.03;;;;;;;8.35;100.00;98027.91;5109336;28;20108;-95
2024/03/09 03:54:56;;;;;;;7.60;4.88;;;;;;;9.17;100.00;98165.94;5110158;28;20039;-95
2024/03/09 03:57:23;;;;;;;7.32;4.25;;;;;;;8.82;100.00;98144.88;5109972;28;20036;-93
2024/03/09 03:59:49;;;;;;;11.25;4.93;;;;;;;8.56;100.00;98086.50;5110930;28;20042;-95
2024/03/09 04:02:15;;;;;;;7.80;4.47;;;;;;;8.77;100.00;98117.66;5110515;28;20032;-94
2024/03/09 04:04:41;;;;;;;7.55;4.10;;;;;;;9.12;100.00;98170.53;5110231;28;20117;-94
2024/03/09 04:07:07;;;;;;;8.80;4.25;;;;;;;9.25;100.00;98159.47;5111120;28;20042;-94
2024/03/09 04:09:33;;;;;;;7.00;4.22;;;;;;;9.33;100.00;98169.88;5111953;28;20067;-95
2024/03/09 04:12:00;;;;;;;7.53;4.28;;;;;;;9.15;100.00;98112.97;5120293;28;20040;-94
2024/03/09 04:14:28;;;;;;;10.30;3.97;;;;;;;9.21;100.00;98133.09;5120818;28;20896;-94
2024/03/09 04:16:55;;;;;;;4.93;3.40;;;;;;;9.50;100.00;98181.72;5098816;28;20074;-94
2024/03/09 04:19:21;;;;;;;10.20;4.45;;;;;;;9.17;100.00;98105.81;5097586;28;20040;-93
2024/03/09 04:21:47;;;;;;;7.50;3.65;;;;;;;9.46;100.00;98152.63;5097297;28;20036;-93
2024/03/09 04:24:13;;;;;;;7.18;3.78;;;;;;;9.57;100.00;98162.03;5096133;28;20043;-95
2024/03/09 04:26:40;;;;;;;6.47;3.70;;;;;;;9.62;100.00;98173.38;5096657;28;20050;-94
2024/03/09 04:29:07;;;;;;;8.13;4.10;;;;;;;9.60;100.00;98167.22;5088489;28;20048;-93
2024/03/09 04:31:34;;;;;;;6.40;3.65;;;;;;;9.55;100.00;98179.81;5094981;28;20040;-94
2024/03/09 04:34:02;;;;;;;7.47;4.07;;;;;;;9.22;100.00;98126.91;5095012;28;20048;-93
2024/03/09 04:36:29;;;;;;;8.38;4.40;;;;;;;9.63;100.00;98189.25;5094758;28;20410;-94
2024/03/09 04:39:00;;;;;;;8.10;4.20;;;;;;;9.63;100.00;98189.25;5095206;28;20036;-94
2024/03/09 04:41:28;;;;;;;7.45;4.00;;;;;;;9.10;100.00;98083.03;5094686;28;20044;-94
2024/03/09 04:43:54;;;;;;;6.38;4.00;;;;;;;9.34;100.00;98133.59;5095597;28;20056;-95
2024/03/09 04:46:20;;;;;;;6.47;3.42;;;;;;;9.64;100.00;98180.34;5094743;28;20040;-96
2024/03/09 04:48:48;;;;;;;5.47;3.88;;;;;;;9.30;100.00;98126.63;5097933;28;20040;-95
2024/03/09 04:51:15;;;;;;;7.22;3.67;;;;;;;8.75;100.00;98032.00;5097929;28;20833;-96
2024/03/09 04:53:41;;;;;;;9.30;3.97;;;;;;;9.23;100.00;98131.28;5097445;28;20105;-95
2024/03/09 04:56:08;;;;;;;9.82;5.63;;;;;;;9.19;100.00;98122.53;5097899;28;20040;-95
2024/03/09 04:58:40;;;;;;;8.68;4.15;;;;;;;8.56;100.00;98036.16;5114542;28;20032;-94
2024/03/09 05:01:13;;;;;;;6.95;4.07;;;;;;;9.45;100.00;98181.88;5118999;28;20028;-95
2024/03/09 05:03:46;;;;;;;7.10;3.42;;;;;;;8.92;100.00;98076.56;5119317;28;20028;-96
2024/03/09 05:06:39;;;;;;;9.10;3.65;;;;;;;8.72;100.00;98058.63;5120127;28;20044;-96
2024/03/09 05:09:16;;;;;;;7.40;4.50;;;;;;;8.42;100.00;98010.94;5160289;22;20822;-96
2024/03/09 05:11:43;;;;;;;5.55;3.50;;;;;;;9.45;100.00;98180.09;5058261;28;20049;-96
2024/03/09 05:17:02;;;;;;;8.02;3.55;;;;;;;9.00;100.00;98097.50;5425181;22;20025;-95
2024/03/09 05:19:32;;;;;;;7.05;3.80;;;;;;;9.01;100.00;98097.47;5045327;28;20041;-95
2024/03/09 05:24:56;;;;;;;7.15;3.75;;;;;;;9.36;100.00;98182.16;5053680;28;20064;-96
2024/03/09 05:27:26;;;;;;;8.00;4.18;;;;;;;8.44;100.00;98040.06;5045064;28;20038;-95
2024/03/09 05:29:52;;;;;;;7.30;3.97;;;;;;;8.58;100.00;98044.91;5033776;28;20065;-96
2024/03/09 05:32:22;;;;;;;7.55;4.05;;;;;;;8.49;100.00;98026.66;5178273;22;20032;-95
2024/03/09 05:34:50;;;;;;;12.73;4.65;;;;;;;9.04;100.00;98117.72;5059356;28;20084;-95
2024/03/09 05:37:23;;;;;;;9.20;4.13;;;;;;;8.52;100.00;98046.00;5044324;28;20049;-95
2024/03/09 05:39:53;;;;;;;8.60;4.70;;;;;;;8.66;100.00;98057.94;5038219;28;20030;-96
2024/03/09 05:42:23;;;;;;;10.85;4.55;;;;;;;9.44;100.00;98199.56;5039509;28;20026;-96
2024/03/09 05:44:56;;;;;;;8.90;4.97;;;;;;;8.54;100.00;98035.31;5024137;28;20047;-95
2024/03/09 05:47:26;;;;;;;10.60;5.95;;;;;;;9.45;100.00;98193.38;5020085;28;20069;-96
2024/03/09 05:49:57;;;;;;;9.40;5.35;;;;;;;8.63;100.00;98050.94;5012092;28;20050;-96
2024/03/09 05:52:29;;;;;;;13.13;5.22;;;;;;;8.60;100.00;98043.09;5018656;28;20054;-95
2024/03/09 05:54:57;;;;;;;7.80;4.47;;;;;;;9.50;100.00;98185.25;5025375;28;20488;-96
2024/03/09 05:57:24;;;;;;;8.50;4.95;;;;;;;8.66;100.00;98044.69;5018174;28;20045;-96
2024/03/09 05:59:54;;;;;;;7.93;4.80;;;;;;;8.71;100.00;98045.41;5015585;28;20046;-96
2024/03/09 06:02:21;;;;;;;7.82;5.13;;;;;;;8.82;100.00;98073.31;5007056;28;20054;-96
2024/03/09 06:04:48;;;;;;;11.02;5.40;;;;;;;8.75;100.00;98077.06;5012233;28;20046;-96
2024/03/09 06:07:14;;;;;;;12.80;6.13;;;;;;;9.53;100.00;98202.88;5013206;28;20041;-95
2024/03/09 06:09:41;;;;;;;10.77;5.93;;;;;;;8.77;100.00;98061.13;5006382;28;20065;-96
2024/03/09 06:12:10;;;;;;;11.95;6.15;;;;;;;9.57;100.00;98216.00;5014382;28;20516;-96
2024/03/09 06:14:38;;;;;;;9.50;5.70;;;;;;;9.56;100.00;98210.72;5006781;28;20057;-96
2024/03/09 06:17:04;;;;;;;10.48;5.07;;;;;;;9.59;100.00;98219.47;5010294;28;20038;-95
2024/03/09 06:19:30;;;;;;;8.38;5.40;;;;;;;8.67;100.00;98059.66;5011799;28;20038;-96
2024/03/09 06:21:56;;;;;;;8.65;4.57;;;;;;;9.25;100.00;98159.47;5009777;28;20039;-95
2024/03/09 06:24:23;;;;;;;9.75;5.50;;;;;;;8.63;100.00;98070.38;5002642;28;20042;-95
2024/03/09 06:26:49;;;;;;;9.80;4.55;;;;;;;9.52;100.00;98209.97;5010251;28;20142;-95
2024/03/09 06:29:16;;;;;;;8.05;4.80;;;;;;;8.98;100.00;98126.75;5008759;28;20082;-95
2024/03/09 06:31:43;;;;;;;10.20;5.03;;;;;;;9.40;100.00;98191.78;5006759;28;20050;-95
2024/03/09 06:34:09;;;;;;;7.68;4.80;;;;;;;9.52;100.00;98215.28;5003511;28;20076;-94
2024/03/09 06:36:35;;;;;;;8.23;4.60;;;;;;;8.71;100.00;98080.72;5002280;28;20068;-96
2024/03/09 06:39:01;;;;;;;8.55;5.10;;;;;;;9.04;100.00;98123.03;5010017;28;20089;-94
2024/03/09 06:41:26;;;;;;;12.25;5.30;;;;;;;9.28;100.00;98155.84;5004572;28;20556;-95
2024/03/09 06:43:52;;;;;;;8.95;5.13;;;;;;;9.22;100.00;98134.84;5008176;28;20489;-94
2024/03/09 06:46:20;;;;;;;9.20;5.07;;;;;;;9.36;100.00;98150.31;5003209;28;20076;-94
2024/03/09 06:48:45;;;;;;;9.80;4.80;;;;;;;9.25;100.00;98121.47;5010369;28;20049;-93
2024/03/09 06:51:13;;;;;;;9.50;4.85;;;;;;;9.62;100.00;98163.59;5003885;28;20035;-94
2024/03/09 06:53:40;;;;;;;9.40;4.88;;;;;;;9.92;100.00;98205.13;5002627;28;20053;-93
2024/03/09 06:56:07;;;;;;;8.05;4.60;;;;;;;9.63;100.00;98120.22;5002156;28;20137;-94
2024/03/09 06:58:33;;;;;;;9.02;5.28;;;;;;;10.23;100.00;98181.91;5008068;28;20141;-94
2024/03/09 07:00:59;;;;;;;9.68;5.45;;;;;;;9.94;100.00;98139.56;5009382;28;20046;-93
2024/03/09 07:03:27;;;;;;;10.48;4.82;;;;;;;10.23;100.00;98197.84;5007839;28;20065;-95
2024/03/09 07:05:53;;;;;;;9.32;5.20;;;;;;;10.31;100.00;98212.69;4999671;28;20042;-93
2024/03/09 07:08:21;;;;;;;8.68;5.30;;;;;;;10.01;100.00;98168.50;5001239;28;20045;-93
2024/03/09 07:10:47;;;;;;;8.07;4.57;;;;;;;10.26;100.00;98226.97;5016797;28;20046;-91
2024/03/09 07:13:13;;;;;;;9.35;4.95;;;;;;;10.06;100.00;98178.94;5017332;28;20130;-93
2024/03/09 07:15:41;;;;;;;11.73;5.82;;;;;;;10.35;100.00;98227.63;5016775;28;20046;-94
2024/03/09 07:18:07;;;;;;;10.40;5.88;;;;;;;10.40;100.00;98239.81;5013336;28;20046;-92
2024/03/09 07:20:35;;;;;;;9.40;5.20;;;;;;;10.51;100.00;98234.13;5002669;28;20046;-94
2024/03/09 07:23:01;;;;;;;10.13;4.95;;;;;;;10.57;100.00;98227.72;5002403;28;20051;-94
2024/03/09 07:25:27;;;;;;;10.20;5.47;;;;;;;10.65;100.00;98231.84;5001579;28;20137;-94
2024/03/09 07:27:54;;;;;;;13.55;5.72;;;;;;;10.09;100.00;98133.72;5004843;28;20160;-93
2024/03/09 07:30:21;;;;;;;9.48;5.53;;;;;;;9.87;100.00;98089.31;5004935;28;20039;-93
2024/03/09 07:32:49;;;;;;;9.95;5.38;;;;;;;10.54;100.00;98201.22;5004116;28;20137;-93
2024/03/09 07:35:16;;;;;;;8.52;4.97;;;;;;;10.46;100.00;98170.50;5002851;28;20046;-95
2024/03/09 07:37:45;;;;;;;10.77;5.07;;;;;;;10.53;100.00;98186.22;5002556;28;20042;-93
2024/03/09 07:40:12;;;;;;;7.88;5.03;;;;;;;10.73;100.00;98238.66;5003726;28;20039;-93
2024/03/09 07:42:38;;;;;;;8.63;5.20;;;;;;;10.63;100.00;98232.84;5003790;28;20038;-92
2024/03/09 07:45:07;;;;;;;8.48;4.75;;;;;;;10.65;100.00;98231.84;5004586;28;20266;-92
2024/03/09 07:47:34;;;;;;;9.02;5.20;;;;;;;10.66;100.00;98222.94;5005829;28;20046;-94
2024/03/09 07:50:00;;;;;;;10.38;5.05;;;;;;;10.23;100.00;98171.25;5006847;28;20052;-94
2024/03/09 07:52:26;;;;;;;7.25;4.32;;;;;;;10.32;100.00;98146.19;5016567;28;20050;-94
2024/03/09 07:54:56;;;;;;;9.23;4.38;;;;;;;10.54;100.00;98146.28;5013705;28;20039;-93
2024/03/09 07:57:22;;;;;;;8.85;4.57;;;;;;;10.63;100.00;98127.34;5004436;28;20053;-94
2024/03/09 07:59:48;;;;;;;6.85;4.22;;;;;;;11.56;100.00;98249.72;5007940;28;20125;-92
2024/03/09 08:02:17;;;;;;;7.72;4.07;;;;;;;11.70;100.00;98243.84;5003201;28;20093;-94
2024/03/09 08:04:43;;;;;;;7.80;4.95;;;;;;;11.79;100.00;98240.81;5006924;28;20050;-94
2024/03/09 08:07:10;;;;;;;9.93;5.00;;;;;;;11.82;100.00;98242.47;5013518;28;20038;-93
2024/03/09 08:09:36;;;;;;;13.23;5.75;;;;;;;11.73;100.00;98251.69;5011470;28;20489;-93
2024/03/09 08:12:04;;;;;;;7.35;5.28;;;;;;;11.18;100.00;98168.69;5008140;28;20093;-95
2024/03/09 08:14:33;;;;;;;7.90;4.72;;;;;;;11.20;100.00;98150.88;5004355;28;20047;-94
2024/03/09 08:16:59;;;;;;;7.45;4.85;;;;;;;11.78;100.00;98259.53;5002162;28;20050;-94
2024/03/09 08:19:25;;;;;;;10.65;4.38;;;;;;;11.57;100.00;98198.19;4998248;28;20054;-93
2024/03/09 08:21:51;;;;;;;7.75;4.05;;;;;;;11.28;100.00;98178.94;5003663;28;20050;-95
2024/03/09 08:24:17;;;;;;;7.85;4.70;;;;;;;10.86;100.00;98118.50;5008016;28;20065;-94
2024/03/09 08:26:45;;;;;;;7.90;3.88;;;;;;;11.59;100.00;98246.06;5010560;28;20065;-94
2024/03/09 08:29:15;;;;;;;5.20;3.50;;;;;;;11.64;100.00;98238.75;5005607;28;20050;-94
2024/03/09 08:31:41;;;;;;;5.60;2.90;;;;;;;11.15;100.00;98172.34;5003594;28;20061;-93
2024/03/09 08:34:08;;;;;;;6.80;3.70;;;;;;;11.49;100.00;98205.59;5004654;28;20405;-96
2024/03/09 08:36:34;;;;;;;8.27;3.78;;;;;;;11.96;100.00;98255.28;5006894;28;20041;-93
2024/03/09 08:39:00;;;;;;;6.50;3.47;;;;;;;12.19;100.00;98255.19;5005025;28;20038;-93
2024/03/09 08:41:27;;;;;;;7.47;4.20;;;;;;;11.65;100.00;98174.78;5008908;28;20065;-94
2024/03/09 08:43:53;;;;;;;9.02;4.53;;;;;;;10.94;100.00;98114.66;5005517;28;20042;-93
2024/03/09 08:46:21;;;;;;;8.70;4.78;;;;;;;11.03;100.00;98188.78;5014581;28;20037;-94
2024/03/09 08:48:47;;;;;;;10.48;4.05;;;;;;;11.27;100.00;98257.03;5005491;28;20038;-95
2024/03/09 08:51:13;;;;;;;6.75;4.07;;;;;;;11.64;100.00;98257.41;5005208;28;20781;-94
2024/03/09 08:53:41;;;;;;;7.10;3.50;;;;;;;11.54;100.00;98243.59;5006565;28;20054;-93
2024/03/09 08:56:08;;;;;;;5.43;3.30;;;;;;;11.35;100.00;98247.91;5003973;28;20035;-94
2024/03/09 08:58:34;;;;;;;6.95;3.70;;;;;;;11.65;100.00;98246.69;5005561;28;20100;-91
2024/03/09 09:01:00;;;;;;;7.40;3.90;;;;;;;11.85;100.00;98242.38;5027759;28;20078;-94
2024/03/09 09:03:28;;;;;;;7.53;4.72;;;;;;;11.43;100.00;98118.88;5029827;28;20042;-92
2024/03/09 09:05:53;;;;;;;6.65;4.00;;;;;;;12.00;100.00;98167.16;5029785;28;20097;-94
2024/03/09 09:08:25;;;;;;;8.00;3.75;;;;;;;12.04;100.00;98147.44;5032181;28;20030;-95
2024/03/09 09:10:51;;;;;;;7.72;4.57;;;;;;;12.59;100.00;98229.47;5025390;28;20144;-93
2024/03/09 09:13:17;;;;;;;7.20;3.88;;;;;;;12.09;100.00;98165.88;5008597;28;20042;-94
2024/03/09 09:15:46;;;;;;;8.63;4.22;;;;;;;12.60;100.00;98233.91;5007654;28;20045;-94
2024/03/09 09:18:14;;;;;;;7.45;3.60;;;;;;;11.97;100.00;98115.78;5007082;28;20191;-93
2024/03/09 09:20:41;;;;;;;7.50;3.70;;;;;;;11.45;100.00;98100.16;5006286;28;20045;-96
2024/03/09 09:23:10;;;;;;;6.82;4.38;;;;;;;12.22;100.00;98230.22;5032691;28;20045;-93
2024/03/09 09:25:36;;;;;;;8.23;3.80;;;;;;;11.98;100.00;98157.50;5002222;28;20046;-92
2024/03/09 09:28:02;;;;;;;6.50;3.83;;;;;;;12.44;100.00;98182.16;5003828;28;20049;-95
2024/03/09 09:30:28;;;;;;;8.52;4.43;;;;;;;12.68;100.00;98236.22;5000071;28;20050;-92
2024/03/09 09:32:54;;;;;;;9.27;4.88;;;;;;;12.82;100.00;98204.47;5003825;28;20058;-92
2024/03/09 09:35:20;;;;;;;7.10;4.10;;;;;;;12.85;100.00;98161.63;5004254;28;20125;-93
2024/03/09 09:37:48;;;;;;;6.50;3.67;;;;;;;13.11;100.00;98139.03;5003832;28;20050;-93
2024/03/09 09:40:14;;;;;;;9.63;4.43;;;;;;;13.68;100.00;98173.72;5004304;28;20132;-92
2024/03/09 09:42:42;;;;;;;7.40;4.57;;;;;;;14.25;100.00;98213.66;5003918;28;20049;-92
2024/03/09 09:45:17;;;;;;;8.07;4.13;;;;;;;13.56;100.00;98104.88;5006339;28;20058;-92
2024/03/09 09:47:46;;;;;;;8.73;5.03;;;;;;;14.35;100.00;98219.41;5005295;28;20045;-93
2024/03/09 09:50:18;;;;;;;8.88;4.47;;;;;;;14.56;100.00;98218.31;5002323;28;20051;-90
2024/03/09 09:52:48;;;;;;;8.48;4.65;;;;;;;14.51;100.00;98168.66;5005061;28;20160;-92
2024/03/09 09:55:16;;;;;;;7.65;4.00;;;;;;;14.25;100.00;98111.16;5003173;28;20462;-90
2024/03/09 09:57:43;;;;;;;7.05;4.05;;;;;;;13.72;100.00;98094.28;5006062;28;20045;-93
2024/03/09 10:00:12;;;;;;;6.60;3.70;;;;;;;14.01;100.00;98145.38;5005110;28;20041;-93
2024/03/09 10:02:39;;;;;;;6.32;4.07;;;;;;;14.17;100.00;98200.66;5005915;28;20042;-92
2024/03/09 10:05:11;;;;;;;8.23;4.22;;;;;;;14.46;100.00;98218.84;5001809;28;20886;-92
2024/03/09 10:07:37;;;;;;;6.30;3.63;;;;;;;14.28;100.00;98209.97;5001605;28;20038;-92
2024/03/09 10:10:15;;;;;;;8.52;4.07;;;;;;;14.43;100.00;98193.13;5004654;28;20050;-92
2024/03/09 10:12:42;;;;;;;5.38;3.60;;;;;;;14.36;100.00;98176.53;5010508;28;20128;-92
2024/03/09 10:15:13;;;;;;;8.70;4.35;;;;;;;13.83;100.00;98198.81;5005989;28;20050;-91
2024/03/09 10:17:41;;;;;;;7.60;3.50;;;;;;;14.39;100.00;98191.56;5007820;28;20074;-94
2024/03/09 10:20:12;;;;;;;9.35;3.75;;;;;;;14.64;100.00;98179.59;5002452;28;20046;-94
2024/03/09 10:22:40;;;;;;;8.30;4.53;;;;;;;14.74;100.00;98183.50;5003661;28;20053;-93
2024/03/09 10:25:08;;;;;;;7.72;3.75;;;;;;;14.86;100.00;98187.38;5004146;28;20060;-93
2024/03/09 10:27:35;;;;;;;7.65;3.72;;;;;;;14.37;100.00;98145.28;5004025;28;20104;-92
2024/03/09 10:30:10;;;;;;;9.40;3.80;;;;;;;13.82;100.00;98097.38;5001727;28;20033;-92
2024/03/09 10:32:37;;;;;;;7.53;3.00;;;;;;;14.54;100.00;98185.41;5001041;28;20050;-93
2024/03/09 10:35:09;;;;;;;8.93;3.65;;;;;;;14.56;100.00;98191.56;5003811;28;20133;-91
2024/03/09 10:37:38;;;;;;;10.75;3.80;;;;;;;13.54;100.00;98066.69;4999983;28;20125;-92
2024/03/09 10:40:06;;;;;;;10.60;3.33;;;;;;;13.59;100.00;98082.47;4994312;28;20058;-93
2024/03/09 10:42:42;;;;;;;7.30;3.58;;;;;;;14.36;100.00;98208.63;5005591;28;20056;-94
2024/03/09 10:45:11;;;;;;;7.35;3.33;;;;;;;14.52;100.00;98189.09;4996146;28;20142;-92
2024/03/09 10:47:41;;;;;;;5.60;3.00;;;;;;;14.53;100.00;98185.47;5000191;28;20046;-92
2024/03/09 10:50:16;;;;;;;8.77;3.20;;;;;;;14.60;100.00;98210.16;5002078;28;20049;-93
2024/03/09 10:52:50;;;;;;;5.40;2.45;;;;;;;14.63;100.00;98221.53;4995091;28;20049;-92
2024/03/09 10:55:24;;;;;;;4.95;2.72;;;;;;;14.70;100.00;98208.69;5004950;28;20104;-91
2024/03/09 10:57:53;;;;;;;6.25;3.67;;;;;;;14.71;100.00;98202.41;5002488;28;20069;-93
2024/03/09 11:00:28;;;;;;;6.50;3.35;;;;;;;14.61;100.00;98172.59;5000524;28;20038;-94
2024/03/09 11:02:56;;;;;;;9.02;3.20;;;;;;;15.07;100.00;98218.34;5000746;28;20069;-90
2024/03/09 11:05:23;;;;;;;4.85;2.83;;;;;;;15.11;100.00;98190.41;5004075;28;20042;-91
2024/03/09 11:07:50;;;;;;;9.60;3.85;;;;;;;14.58;100.00;98111.22;5003133;28;20070;-91
2024/03/09 11:10:20;;;;;;;5.63;2.97;;;;;;;14.97;100.00;98214.41;5001528;28;20035;-92
2024/03/09 11:12:46;;;;;;;9.77;3.08;;;;;;;14.68;100.00;98155.28;5001659;28;20042;-92
2024/03/09 11:15:14;;;;;;;7.80;3.15;;;;;;;14.75;100.00;98129.91;5003093;28;20053;-92
2024/03/09 11:17:42;;;;;;;9.98;2.90;;;;;;;15.37;100.00;98205.03;5008281;28;20489;-94
2024/03/09 11:20:12;;;;;;;4.68;1.90;;;;;;;15.35;100.00;98215.00;5001972;28;20053;-92
2024/03/09 11:22:45;;;;;;;11.10;2.75;;;;;;;14.66;100.00;98164.31;5003348;28;20039;-92
2024/03/09 11:25:35;;;;;;;5.90;2.38;;;;;;;15.09;100.00;98213.72;5007115;28;20033;-93
2024/03/09 11:28:02;;;;;;;5.97;2.63;;;;;;;14.36;100.00;98087.41;5004398;28;20060;-95
2024/03/09 11:30:30;;;;;;;5.85;1.85;;;;;;;14.11;100.00;98120.78;5004797;28;20494;-92
2024/03/09 11:32:56;;;;;;;4.70;2.35;;;;;;;14.89;100.00;98197.88;5010951;28;20046;-91
2024/03/09 11:35:27;;;;;;;5.38;2.28;;;;;;;14.97;100.00;98151.00;5009710;28;20046;-92
2024/03/09 11:37:56;;;;;;;5.68;1.90;;;;;;;14.62;100.00;98071.81;5005608;28;20046;-92
2024/03/09 11:40:24;;;;;;;6.97;2.10;;;;;;;15.45;100.00;98199.28;5005718;28;20049;-94